sensor_id;sensor_type;location;lat;lon;timestamp;P1;durP1;ratioP1;P2;durP2;ratioP2
51034;SDS011;37062;52.546;13.230;2023-12-20T00:02:21;4.10;;;3.70;;
51034;SDS011;37062;52.546;13.230;2023-12-20T00:04:49;7.32;;;4.93;;
51034;SDS011;37062;52.546;13.230;2023-12-20T00:07:18;4.90;;;4.40;;
51034;SDS011;37062;52.546;13.230;2023-12-20T00:09:46;4.45;;;3.97;;
51034;SDS011;37062;52.546;13.230;2023-12-20T00:12:14;5.55;;;5.05;;
51034;SDS011;37062;52.546;13.230;2023-12-20T00:14:44;4.10;;;3.70;;
51034;SDS011;37062;52.546;13.230;2023-12-20T00:17:12;4.97;;;4.15;;
51034;SDS011;37062;52.546;13.230;2023-12-20T00:19:40;4.00;;;3.60;;
51034;SDS011;37062;52.546;13.230;2023-12-20T00:22:08;4.68;;;4.18;;
51034;SDS011;37062;52.546;13.230;2023-12-20T00:24:37;4.60;;;4.20;;
51034;SDS011;37062;52.546;13.230;2023-12-20T00:27:05;4.72;;;4.30;;
51034;SDS011;37062;52.546;13.230;2023-12-20T00:29:33;6.20;;;4.90;;
51034;SDS011;37062;52.546;13.230;2023-12-20T00:32:03;4.85;;;4.35;;
51034;SDS011;37062;52.546;13.230;2023-12-20T00:34:32;4.90;;;4.40;;
51034;SDS011;37062;52.546;13.230;2023-12-20T00:37:00;4.47;;;4.03;;
51034;SDS011;37062;52.546;13.230;2023-12-20T00:39:28;4.18;;;3.78;;
51034;SDS011;37062;52.546;13.230;2023-12-20T00:41:57;4.60;;;4.20;;
51034;SDS011;37062;52.546;13.230;2023-12-20T00:44:25;5.13;;;4.60;;
51034;SDS011;37062;52.546;13.230;2023-12-20T00:46:53;3.83;;;3.47;;
51034;SDS011;37062;52.546;13.230;2023-12-20T00:49:24;4.30;;;3.90;;
51034;SDS011;37062;52.546;13.230;2023-12-20T00:51:52;4.28;;;3.88;;
51034;SDS011;37062;52.546;13.230;2023-12-20T00:54:20;4.20;;;3.80;;
51034;SDS011;37062;52.546;13.230;2023-12-20T00:56:48;4.28;;;3.88;;
51034;SDS011;37062;52.546;13.230;2023-12-20T00:59:16;4.15;;;3.78;;
51034;SDS011;37062;52.546;13.230;2023-12-20T01:01:45;4.28;;;3.88;;
51034;SDS011;37062;52.546;13.230;2023-12-20T01:04:13;4.35;;;3.97;;
51034;SDS011;37062;52.546;13.230;2023-12-20T01:06:43;4.30;;;3.90;;
51034;SDS011;37062;52.546;13.230;2023-12-20T01:09:11;3.92;;;3.60;;
51034;SDS011;37062;52.546;13.230;2023-12-20T01:11:39;6.05;;;5.18;;
51034;SDS011;37062;52.546;13.230;2023-12-20T01:14:08;4.60;;;4.20;;
51034;SDS011;37062;52.546;13.230;2023-12-20T01:16:36;4.38;;;3.92;;
51034;SDS011;37062;52.546;13.230;2023-12-20T01:19:04;3.67;;;3.38;;
51034;SDS011;37062;52.546;13.230;2023-12-20T01:21:33;3.90;;;3.60;;
51034;SDS011;37062;52.546;13.230;2023-12-20T01:24:03;3.80;;;3.47;;
51034;SDS011;37062;52.546;13.230;2023-12-20T01:26:31;3.65;;;3.35;;
51034;SDS011;37062;52.546;13.230;2023-12-20T01:28:59;3.35;;;3.03;;
51034;SDS011;37062;52.546;13.230;2023-12-20T01:31:27;3.90;;;3.50;;
51034;SDS011;37062;52.546;13.230;2023-12-20T01:33:56;3.67;;;3.38;;
51034;SDS011;37062;52.546;13.230;2023-12-20T01:36:24;3.67;;;3.38;;
51034;SDS011;37062;52.546;13.230;2023-12-20T01:38:52;3.78;;;3.40;;
51034;SDS011;37062;52.546;13.230;2023-12-20T01:41:22;3.90;;;3.60;;
51034;SDS011;37062;52.546;13.230;2023-12-20T01:43:51;4.18;;;3.78;;
51034;SDS011;37062;52.546;13.230;2023-12-20T01:46:20;3.78;;;3.47;;
51034;SDS011;37062;52.546;13.230;2023-12-20T01:48:49;4.68;;;3.50;;
51034;SDS011;37062;52.546;13.230;2023-12-20T01:51:17;3.08;;;2.78;;
51034;SDS011;37062;52.546;13.230;2023-12-20T01:53:46;3.30;;;3.00;;
51034;SDS011;37062;52.546;13.230;2023-12-20T01:56:35;2.65;;;2.45;;
51034;SDS011;37062;52.546;13.230;2023-12-20T01:59:03;3.17;;;2.20;;
51034;SDS011;37062;52.546;13.230;2023-12-20T02:01:38;2.00;;;1.80;;
51034;SDS011;37062;52.546;13.230;2023-12-20T02:04:09;2.05;;;1.88;;
51034;SDS011;37062;52.546;13.230;2023-12-20T02:06:37;3.53;;;2.30;;
51034;SDS011;37062;52.546;13.230;2023-12-20T02:09:08;2.17;;;1.98;;
51034;SDS011;37062;52.546;13.230;2023-12-20T02:11:37;2.30;;;2.10;;
51034;SDS011;37062;52.546;13.230;2023-12-20T02:14:06;3.45;;;2.22;;
51034;SDS011;37062;52.546;13.230;2023-12-20T02:16:34;3.05;;;2.60;;
51034;SDS011;37062;52.546;13.230;2023-12-20T02:19:03;2.25;;;2.05;;
51034;SDS011;37062;52.546;13.230;2023-12-20T02:21:36;2.30;;;2.10;;
51034;SDS011;37062;52.546;13.230;2023-12-20T02:24:04;2.50;;;2.30;;
51034;SDS011;37062;52.546;13.230;2023-12-20T02:26:33;2.20;;;2.00;;
51034;SDS011;37062;52.546;13.230;2023-12-20T02:29:01;2.65;;;2.45;;
51034;SDS011;37062;52.546;13.230;2023-12-20T02:31:30;2.70;;;2.50;;
51034;SDS011;37062;52.546;13.230;2023-12-20T02:33:59;2.90;;;2.70;;
51034;SDS011;37062;52.546;13.230;2023-12-20T02:36:27;3.33;;;2.95;;
51034;SDS011;37062;52.546;13.230;2023-12-20T02:38:56;3.33;;;2.47;;
51034;SDS011;37062;52.546;13.230;2023-12-20T02:41:25;2.97;;;2.78;;
51034;SDS011;37062;52.546;13.230;2023-12-20T02:43:53;3.25;;;2.95;;
51034;SDS011;37062;52.546;13.230;2023-12-20T02:46:21;4.07;;;3.30;;
51034;SDS011;37062;52.546;13.230;2023-12-20T02:48:50;3.47;;;3.13;;
51034;SDS011;37062;52.546;13.230;2023-12-20T02:51:19;3.72;;;3.33;;
51034;SDS011;37062;52.546;13.230;2023-12-20T02:53:47;3.30;;;3.00;;
51034;SDS011;37062;52.546;13.230;2023-12-20T02:56:16;3.90;;;3.22;;
51034;SDS011;37062;52.546;13.230;2023-12-20T02:58:44;3.10;;;2.80;;
51034;SDS011;37062;52.546;13.230;2023-12-20T03:01:13;3.50;;;2.70;;
51034;SDS011;37062;52.546;13.230;2023-12-20T03:03:41;4.20;;;2.83;;
51034;SDS011;37062;52.546;13.230;2023-12-20T03:06:09;4.82;;;2.35;;
51034;SDS011;37062;52.546;13.230;2023-12-20T03:08:37;5.82;;;2.45;;
51034;SDS011;37062;52.546;13.230;2023-12-20T03:11:07;3.03;;;2.35;;
51034;SDS011;37062;52.546;13.230;2023-12-20T03:13:37;4.07;;;2.38;;
51034;SDS011;37062;52.546;13.230;2023-12-20T03:16:07;3.00;;;2.05;;
51034;SDS011;37062;52.546;13.230;2023-12-20T03:18:36;5.22;;;2.08;;
51034;SDS011;37062;52.546;13.230;2023-12-20T03:21:05;3.83;;;1.90;;
51034;SDS011;37062;52.546;13.230;2023-12-20T03:23:33;3.42;;;2.05;;
51034;SDS011;37062;52.546;13.230;2023-12-20T03:26:01;3.92;;;1.50;;
51034;SDS011;37062;52.546;13.230;2023-12-20T03:28:29;5.32;;;1.95;;
51034;SDS011;37062;52.546;13.230;2023-12-20T03:30:59;3.17;;;1.70;;
51034;SDS011;37062;52.546;13.230;2023-12-20T03:33:29;2.90;;;1.50;;
51034;SDS011;37062;52.546;13.230;2023-12-20T03:35:57;3.92;;;1.63;;
51034;SDS011;37062;52.546;13.230;2023-12-20T03:38:25;2.22;;;1.40;;
51034;SDS011;37062;52.546;13.230;2023-12-20T03:40:53;6.50;;;2.03;;
51034;SDS011;37062;52.546;13.230;2023-12-20T03:43:21;4.95;;;1.40;;
51034;SDS011;37062;52.546;13.230;2023-12-20T03:45:50;6.28;;;1.52;;
51034;SDS011;37062;52.546;13.230;2023-12-20T03:48:20;9.25;;;1.50;;
51034;SDS011;37062;52.546;13.230;2023-12-20T03:50:48;5.38;;;1.25;;
51034;SDS011;37062;52.546;13.230;2023-12-20T03:53:16;3.03;;;1.20;;
51034;SDS011;37062;52.546;13.230;2023-12-20T03:55:44;4.80;;;1.58;;
51034;SDS011;37062;52.546;13.230;2023-12-20T03:58:12;3.40;;;1.25;;
51034;SDS011;37062;52.546;13.230;2023-12-20T04:00:40;6.53;;;1.55;;
51034;SDS011;37062;52.546;13.230;2023-12-20T04:03:09;4.55;;;1.38;;
51034;SDS011;37062;52.546;13.230;2023-12-20T04:05:40;3.88;;;1.20;;
51034;SDS011;37062;52.546;13.230;2023-12-20T04:08:09;3.30;;;1.33;;
51034;SDS011;37062;52.546;13.230;2023-12-20T04:10:37;3.80;;;1.42;;
51034;SDS011;37062;52.546;13.230;2023-12-20T04:13:05;5.90;;;1.20;;
51034;SDS011;37062;52.546;13.230;2023-12-20T04:15:33;5.20;;;1.48;;
51034;SDS011;37062;52.546;13.230;2023-12-20T04:18:02;6.15;;;1.25;;
51034;SDS011;37062;52.546;13.230;2023-12-20T04:20:30;3.85;;;1.55;;
51034;SDS011;37062;52.546;13.230;2023-12-20T04:23:00;2.25;;;1.10;;
51034;SDS011;37062;52.546;13.230;2023-12-20T04:25:28;6.32;;;1.10;;
51034;SDS011;37062;52.546;13.230;2023-12-20T04:27:56;8.43;;;1.90;;
51034;SDS011;37062;52.546;13.230;2023-12-20T04:30:24;6.22;;;1.88;;
51034;SDS011;37062;52.546;13.230;2023-12-20T04:32:52;5.40;;;1.67;;
51034;SDS011;37062;52.546;13.230;2023-12-20T04:35:20;6.05;;;1.45;;
51034;SDS011;37062;52.546;13.230;2023-12-20T04:37:48;4.85;;;1.70;;
51034;SDS011;37062;52.546;13.230;2023-12-20T04:40:18;5.07;;;1.65;;
51034;SDS011;37062;52.546;13.230;2023-12-20T04:42:46;6.32;;;1.30;;
51034;SDS011;37062;52.546;13.230;2023-12-20T04:45:15;7.45;;;1.65;;
51034;SDS011;37062;52.546;13.230;2023-12-20T04:47:43;6.47;;;1.60;;
51034;SDS011;37062;52.546;13.230;2023-12-20T04:50:13;4.50;;;1.60;;
51034;SDS011;37062;52.546;13.230;2023-12-20T04:52:42;7.60;;;1.77;;
51034;SDS011;37062;52.546;13.230;2023-12-20T04:55:10;7.97;;;1.58;;
51034;SDS011;37062;52.546;13.230;2023-12-20T04:57:40;8.20;;;2.05;;
51034;SDS011;37062;52.546;13.230;2023-12-20T05:00:10;5.38;;;1.60;;
51034;SDS011;37062;52.546;13.230;2023-12-20T05:02:40;6.03;;;1.50;;
51034;SDS011;37062;52.546;13.230;2023-12-20T05:05:09;10.25;;;1.85;;
51034;SDS011;37062;52.546;13.230;2023-12-20T05:07:37;8.43;;;1.60;;
51034;SDS011;37062;52.546;13.230;2023-12-20T05:10:06;6.70;;;1.75;;
51034;SDS011;37062;52.546;13.230;2023-12-20T05:12:35;7.35;;;1.80;;
51034;SDS011;37062;52.546;13.230;2023-12-20T05:15:05;8.38;;;1.52;;
51034;SDS011;37062;52.546;13.230;2023-12-20T05:17:34;9.23;;;1.77;;
51034;SDS011;37062;52.546;13.230;2023-12-20T05:20:03;5.30;;;1.20;;
51034;SDS011;37062;52.546;13.230;2023-12-20T05:22:32;7.35;;;1.60;;
51034;SDS011;37062;52.546;13.230;2023-12-20T05:25:00;4.50;;;1.40;;
51034;SDS011;37062;52.546;13.230;2023-12-20T05:27:28;9.20;;;1.70;;
51034;SDS011;37062;52.546;13.230;2023-12-20T05:29:56;3.10;;;1.30;;
51034;SDS011;37062;52.546;13.230;2023-12-20T05:32:26;5.82;;;1.73;;
51034;SDS011;37062;52.546;13.230;2023-12-20T05:34:54;6.35;;;1.27;;
51034;SDS011;37062;52.546;13.230;2023-12-20T05:37:22;5.75;;;1.48;;
51034;SDS011;37062;52.546;13.230;2023-12-20T05:39:50;9.52;;;1.83;;
51034;SDS011;37062;52.546;13.230;2023-12-20T05:42:19;7.47;;;1.85;;
51034;SDS011;37062;52.546;13.230;2023-12-20T05:44:47;10.20;;;1.77;;
51034;SDS011;37062;52.546;13.230;2023-12-20T05:47:18;7.35;;;1.58;;
51034;SDS011;37062;52.546;13.230;2023-12-20T05:49:48;8.45;;;1.85;;
51034;SDS011;37062;52.546;13.230;2023-12-20T05:52:17;8.95;;;1.92;;
51034;SDS011;37062;52.546;13.230;2023-12-20T05:54:45;11.15;;;1.83;;
51034;SDS011;37062;52.546;13.230;2023-12-20T05:57:13;9.57;;;1.80;;
51034;SDS011;37062;52.546;13.230;2023-12-20T05:59:41;7.95;;;1.75;;
51034;SDS011;37062;52.546;13.230;2023-12-20T06:02:09;7.38;;;1.88;;
51034;SDS011;37062;52.546;13.230;2023-12-20T06:04:37;7.28;;;1.67;;
51034;SDS011;37062;52.546;13.230;2023-12-20T06:07:12;6.47;;;1.60;;
51034;SDS011;37062;52.546;13.230;2023-12-20T06:09:41;8.45;;;1.70;;
51034;SDS011;37062;52.546;13.230;2023-12-20T06:12:09;5.10;;;1.90;;
51034;SDS011;37062;52.546;13.230;2023-12-20T06:14:37;10.27;;;1.98;;
51034;SDS011;37062;52.546;13.230;2023-12-20T06:17:06;7.50;;;1.80;;
51034;SDS011;37062;52.546;13.230;2023-12-20T06:19:34;6.68;;;1.92;;
51034;SDS011;37062;52.546;13.230;2023-12-20T06:22:02;7.40;;;2.03;;
51034;SDS011;37062;52.546;13.230;2023-12-20T06:24:32;8.77;;;2.22;;
51034;SDS011;37062;52.546;13.230;2023-12-20T06:27:00;7.47;;;2.00;;
51034;SDS011;37062;52.546;13.230;2023-12-20T06:29:29;8.10;;;1.63;;
51034;SDS011;37062;52.546;13.230;2023-12-20T06:31:57;6.55;;;1.70;;
51034;SDS011;37062;52.546;13.230;2023-12-20T06:34:26;6.93;;;1.88;;
51034;SDS011;37062;52.546;13.230;2023-12-20T06:36:54;7.28;;;1.65;;
51034;SDS011;37062;52.546;13.230;2023-12-20T06:39:22;7.90;;;1.90;;
51034;SDS011;37062;52.546;13.230;2023-12-20T06:41:52;11.60;;;2.63;;
51034;SDS011;37062;52.546;13.230;2023-12-20T06:44:20;6.75;;;2.13;;
51034;SDS011;37062;52.546;13.230;2023-12-20T06:46:48;12.18;;;3.55;;
51034;SDS011;37062;52.546;13.230;2023-12-20T06:49:16;5.95;;;2.00;;
51034;SDS011;37062;52.546;13.230;2023-12-20T06:51:45;7.38;;;2.45;;
51034;SDS011;37062;52.546;13.230;2023-12-20T06:54:13;4.53;;;2.03;;
51034;SDS011;37062;52.546;13.230;2023-12-20T06:56:41;7.70;;;2.33;;
51034;SDS011;37062;52.546;13.230;2023-12-20T06:59:11;7.65;;;2.22;;
51034;SDS011;37062;52.546;13.230;2023-12-20T07:01:39;7.72;;;1.70;;
51034;SDS011;37062;52.546;13.230;2023-12-20T07:04:08;9.30;;;2.35;;
51034;SDS011;37062;52.546;13.230;2023-12-20T07:06:36;6.43;;;2.05;;
51034;SDS011;37062;52.546;13.230;2023-12-20T07:09:04;9.75;;;1.95;;
51034;SDS011;37062;52.546;13.230;2023-12-20T07:11:32;7.85;;;1.73;;
51034;SDS011;37062;52.546;13.230;2023-12-20T07:14:00;7.32;;;1.88;;
51034;SDS011;37062;52.546;13.230;2023-12-20T07:16:30;7.60;;;1.98;;
51034;SDS011;37062;52.546;13.230;2023-12-20T07:18:59;6.57;;;2.20;;
51034;SDS011;37062;52.546;13.230;2023-12-20T07:21:27;7.68;;;2.22;;
51034;SDS011;37062;52.546;13.230;2023-12-20T07:23:55;6.95;;;2.17;;
51034;SDS011;37062;52.546;13.230;2023-12-20T07:26:23;7.35;;;2.05;;
51034;SDS011;37062;52.546;13.230;2023-12-20T07:28:51;9.52;;;2.08;;
51034;SDS011;37062;52.546;13.230;2023-12-20T07:31:19;9.48;;;2.33;;
51034;SDS011;37062;52.546;13.230;2023-12-20T07:33:49;11.35;;;2.40;;
51034;SDS011;37062;52.546;13.230;2023-12-20T07:36:19;7.57;;;1.92;;
51034;SDS011;37062;52.546;13.230;2023-12-20T07:38:47;13.57;;;2.10;;
51034;SDS011;37062;52.546;13.230;2023-12-20T07:41:15;8.23;;;1.80;;
51034;SDS011;37062;52.546;13.230;2023-12-20T07:43:43;9.27;;;2.20;;
51034;SDS011;37062;52.546;13.230;2023-12-20T07:46:12;5.95;;;1.80;;
51034;SDS011;37062;52.546;13.230;2023-12-20T07:48:40;8.40;;;1.95;;
51034;SDS011;37062;52.546;13.230;2023-12-20T07:51:13;7.15;;;2.38;;
51034;SDS011;37062;52.546;13.230;2023-12-20T07:53:41;7.70;;;1.92;;
51034;SDS011;37062;52.546;13.230;2023-12-20T07:56:15;7.63;;;1.95;;
51034;SDS011;37062;52.546;13.230;2023-12-20T07:58:43;7.53;;;1.83;;
51034;SDS011;37062;52.546;13.230;2023-12-20T08:01:19;10.77;;;2.13;;
51034;SDS011;37062;52.546;13.230;2023-12-20T08:03:48;11.63;;;2.67;;
51034;SDS011;37062;52.546;13.230;2023-12-20T08:06:19;9.57;;;3.00;;
51034;SDS011;37062;52.546;13.230;2023-12-20T08:08:47;6.15;;;1.85;;
51034;SDS011;37062;52.546;13.230;2023-12-20T08:11:36;6.45;;;2.10;;
51034;SDS011;37062;52.546;13.230;2023-12-20T08:14:04;7.95;;;1.77;;
51034;SDS011;37062;52.546;13.230;2023-12-20T08:16:32;9.95;;;1.85;;
51034;SDS011;37062;52.546;13.230;2023-12-20T08:19:00;9.00;;;2.05;;
51034;SDS011;37062;52.546;13.230;2023-12-20T08:21:30;7.57;;;1.80;;
51034;SDS011;37062;52.546;13.230;2023-12-20T08:24:03;6.10;;;2.17;;
51034;SDS011;37062;52.546;13.230;2023-12-20T08:26:32;10.07;;;2.03;;
51034;SDS011;37062;52.546;13.230;2023-12-20T08:29:00;12.32;;;2.00;;
51034;SDS011;37062;52.546;13.230;2023-12-20T08:31:28;7.10;;;2.70;;
51034;SDS011;37062;52.546;13.230;2023-12-20T08:33:56;7.70;;;2.72;;
51034;SDS011;37062;52.546;13.230;2023-12-20T08:36:25;11.95;;;3.40;;
51034;SDS011;37062;52.546;13.230;2023-12-20T08:38:54;11.10;;;4.18;;
51034;SDS011;37062;52.546;13.230;2023-12-20T08:41:22;10.70;;;3.50;;
51034;SDS011;37062;52.546;13.230;2023-12-20T08:43:50;8.68;;;2.60;;
51034;SDS011;37062;52.546;13.230;2023-12-20T08:46:18;7.07;;;1.88;;
51034;SDS011;37062;52.546;13.230;2023-12-20T08:48:47;7.25;;;1.95;;
51034;SDS011;37062;52.546;13.230;2023-12-20T08:51:16;10.88;;;2.47;;
51034;SDS011;37062;52.546;13.230;2023-12-20T08:53:44;7.68;;;2.22;;
51034;SDS011;37062;52.546;13.230;2023-12-20T08:56:15;7.72;;;2.40;;
51034;SDS011;37062;52.546;13.230;2023-12-20T08:58:44;8.30;;;2.10;;
51034;SDS011;37062;52.546;13.230;2023-12-20T09:01:13;6.10;;;1.60;;
51034;SDS011;37062;52.546;13.230;2023-12-20T09:03:41;8.25;;;2.05;;
51034;SDS011;37062;52.546;13.230;2023-12-20T09:06:10;6.45;;;1.92;;
51034;SDS011;37062;52.546;13.230;2023-12-20T09:08:38;7.88;;;1.83;;
51034;SDS011;37062;52.546;13.230;2023-12-20T09:11:06;10.00;;;1.60;;
51034;SDS011;37062;52.546;13.230;2023-12-20T09:13:36;6.75;;;1.90;;
51034;SDS011;37062;52.546;13.230;2023-12-20T09:16:04;7.65;;;1.83;;
51034;SDS011;37062;52.546;13.230;2023-12-20T09:18:33;7.70;;;1.50;;
51034;SDS011;37062;52.546;13.230;2023-12-20T09:21:01;8.82;;;1.83;;
51034;SDS011;37062;52.546;13.230;2023-12-20T09:23:30;7.80;;;1.85;;
51034;SDS011;37062;52.546;13.230;2023-12-20T09:25:58;8.80;;;1.77;;
51034;SDS011;37062;52.546;13.230;2023-12-20T09:28:26;8.23;;;1.73;;
51034;SDS011;37062;52.546;13.230;2023-12-20T09:30:56;7.55;;;2.25;;
51034;SDS011;37062;52.546;13.230;2023-12-20T09:33:24;9.65;;;1.77;;
51034;SDS011;37062;52.546;13.230;2023-12-20T09:35:52;7.65;;;2.63;;
51034;SDS011;37062;52.546;13.230;2023-12-20T09:38:21;7.22;;;1.98;;
51034;SDS011;37062;52.546;13.230;2023-12-20T09:40:49;7.80;;;1.75;;
51034;SDS011;37062;52.546;13.230;2023-12-20T09:43:19;12.45;;;2.40;;
51034;SDS011;37062;52.546;13.230;2023-12-20T09:45:47;8.90;;;2.03;;
51034;SDS011;37062;52.546;13.230;2023-12-20T09:48:18;6.95;;;1.80;;
51034;SDS011;37062;52.546;13.230;2023-12-20T09:50:47;9.90;;;1.70;;
51034;SDS011;37062;52.546;13.230;2023-12-20T09:53:19;10.88;;;2.10;;
51034;SDS011;37062;52.546;13.230;2023-12-20T09:55:50;12.82;;;2.58;;
51034;SDS011;37062;52.546;13.230;2023-12-20T09:58:19;8.75;;;2.25;;
51034;SDS011;37062;52.546;13.230;2023-12-20T10:00:48;8.07;;;2.03;;
51034;SDS011;37062;52.546;13.230;2023-12-20T10:03:18;6.15;;;1.70;;
51034;SDS011;37062;52.546;13.230;2023-12-20T10:05:51;6.75;;;2.05;;
51034;SDS011;37062;52.546;13.230;2023-12-20T10:08:22;9.15;;;2.03;;
51034;SDS011;37062;52.546;13.230;2023-12-20T10:10:51;9.18;;;2.25;;
51034;SDS011;37062;52.546;13.230;2023-12-20T10:13:20;5.43;;;1.77;;
51034;SDS011;37062;52.546;13.230;2023-12-20T10:15:49;10.10;;;2.45;;
51034;SDS011;37062;52.546;13.230;2023-12-20T10:18:18;10.38;;;3.35;;
51034;SDS011;37062;52.546;13.230;2023-12-20T10:21:02;10.15;;;2.83;;
51034;SDS011;37062;52.546;13.230;2023-12-20T10:23:31;11.25;;;3.47;;
51034;SDS011;37062;52.546;13.230;2023-12-20T10:25:59;12.80;;;2.90;;
51034;SDS011;37062;52.546;13.230;2023-12-20T10:28:29;8.48;;;2.35;;
51034;SDS011;37062;52.546;13.230;2023-12-20T10:31:01;8.88;;;2.63;;
51034;SDS011;37062;52.546;13.230;2023-12-20T10:33:31;9.88;;;2.72;;
51034;SDS011;37062;52.546;13.230;2023-12-20T10:36:00;10.95;;;3.33;;
51034;SDS011;37062;52.546;13.230;2023-12-20T10:38:29;10.45;;;2.90;;
51034;SDS011;37062;52.546;13.230;2023-12-20T10:40:57;9.30;;;2.92;;
51034;SDS011;37062;52.546;13.230;2023-12-20T10:43:26;12.10;;;2.50;;
51034;SDS011;37062;52.546;13.230;2023-12-20T10:45:58;9.50;;;2.33;;
51034;SDS011;37062;52.546;13.230;2023-12-20T10:48:27;8.73;;;2.10;;
51034;SDS011;37062;52.546;13.230;2023-12-20T10:50:59;9.20;;;2.33;;
51034;SDS011;37062;52.546;13.230;2023-12-20T10:53:28;7.70;;;2.60;;
51034;SDS011;37062;52.546;13.230;2023-12-20T10:55:57;9.38;;;2.25;;
51034;SDS011;37062;52.546;13.230;2023-12-20T10:58:27;8.50;;;2.55;;
51034;SDS011;37062;52.546;13.230;2023-12-20T11:01:00;11.63;;;2.30;;
51034;SDS011;37062;52.546;13.230;2023-12-20T11:03:30;12.82;;;2.13;;
51034;SDS011;37062;52.546;13.230;2023-12-20T11:06:05;9.57;;;2.38;;
51034;SDS011;37062;52.546;13.230;2023-12-20T11:08:44;7.68;;;1.73;;
51034;SDS011;37062;52.546;13.230;2023-12-20T11:11:23;8.55;;;2.20;;
51034;SDS011;37062;52.546;13.230;2023-12-20T11:13:58;11.73;;;2.28;;
51034;SDS011;37062;52.546;13.230;2023-12-20T11:16:31;10.25;;;3.05;;
51034;SDS011;37062;52.546;13.230;2023-12-20T11:19:14;10.52;;;2.58;;
51034;SDS011;37062;52.546;13.230;2023-12-20T11:21:43;12.13;;;2.40;;
51034;SDS011;37062;52.546;13.230;2023-12-20T11:24:15;9.45;;;2.60;;
51034;SDS011;37062;52.546;13.230;2023-12-20T11:26:46;9.63;;;2.65;;
51034;SDS011;37062;52.546;13.230;2023-12-20T11:29:29;8.25;;;2.45;;
51034;SDS011;37062;52.546;13.230;2023-12-20T11:31:59;10.57;;;2.67;;
51034;SDS011;37062;52.546;13.230;2023-12-20T11:34:31;9.32;;;1.95;;
51034;SDS011;37062;52.546;13.230;2023-12-20T11:37:02;9.77;;;2.53;;
51034;SDS011;37062;52.546;13.230;2023-12-20T11:39:30;12.00;;;2.70;;
51034;SDS011;37062;52.546;13.230;2023-12-20T11:42:04;10.85;;;2.30;;
51034;SDS011;37062;52.546;13.230;2023-12-20T11:44:34;8.05;;;2.10;;
51034;SDS011;37062;52.546;13.230;2023-12-20T11:47:03;7.32;;;2.05;;
51034;SDS011;37062;52.546;13.230;2023-12-20T11:49:32;10.25;;;2.70;;
51034;SDS011;37062;52.546;13.230;2023-12-20T11:52:01;9.90;;;2.20;;
51034;SDS011;37062;52.546;13.230;2023-12-20T11:54:30;7.75;;;2.28;;
51034;SDS011;37062;52.546;13.230;2023-12-20T11:56:58;12.27;;;2.55;;
51034;SDS011;37062;52.546;13.230;2023-12-20T11:59:27;8.80;;;2.42;;
51034;SDS011;37062;52.546;13.230;2023-12-20T12:01:55;8.90;;;2.38;;
51034;SDS011;37062;52.546;13.230;2023-12-20T12:04:28;11.27;;;2.72;;
51034;SDS011;37062;52.546;13.230;2023-12-20T12:06:56;6.40;;;2.45;;
51034;SDS011;37062;52.546;13.230;2023-12-20T12:09:26;8.30;;;2.10;;
51034;SDS011;37062;52.546;13.230;2023-12-20T12:11:54;10.93;;;2.65;;
51034;SDS011;37062;52.546;13.230;2023-12-20T12:14:22;8.88;;;2.60;;
51034;SDS011;37062;52.546;13.230;2023-12-20T12:16:51;6.68;;;2.03;;
51034;SDS011;37062;52.546;13.230;2023-12-20T12:19:20;9.88;;;3.00;;
51034;SDS011;37062;52.546;13.230;2023-12-20T12:21:49;7.03;;;2.63;;
51034;SDS011;37062;52.546;13.230;2023-12-20T12:24:20;7.45;;;2.17;;
51034;SDS011;37062;52.546;13.230;2023-12-20T12:26:53;4.93;;;2.40;;
51034;SDS011;37062;52.546;13.230;2023-12-20T12:29:25;6.90;;;2.03;;
51034;SDS011;37062;52.546;13.230;2023-12-20T12:31:53;9.65;;;2.13;;
51034;SDS011;37062;52.546;13.230;2023-12-20T12:34:21;6.40;;;2.13;;
51034;SDS011;37062;52.546;13.230;2023-12-20T12:36:50;8.07;;;2.75;;
51034;SDS011;37062;52.546;13.230;2023-12-20T12:39:18;7.47;;;2.97;;
51034;SDS011;37062;52.546;13.230;2023-12-20T12:41:46;7.90;;;2.28;;
51034;SDS011;37062;52.546;13.230;2023-12-20T12:44:16;7.03;;;2.20;;
51034;SDS011;37062;52.546;13.230;2023-12-20T12:46:44;8.40;;;2.40;;
51034;SDS011;37062;52.546;13.230;2023-12-20T12:49:14;7.47;;;2.45;;
51034;SDS011;37062;52.546;13.230;2023-12-20T12:51:42;7.93;;;2.22;;
51034;SDS011;37062;52.546;13.230;2023-12-20T12:54:11;9.82;;;2.38;;
51034;SDS011;37062;52.546;13.230;2023-12-20T12:56:42;8.80;;;2.60;;
51034;SDS011;37062;52.546;13.230;2023-12-20T12:59:10;5.07;;;2.08;;
51034;SDS011;37062;52.546;13.230;2023-12-20T13:01:40;5.65;;;1.85;;
51034;SDS011;37062;52.546;13.230;2023-12-20T13:04:08;8.82;;;2.40;;
51034;SDS011;37062;52.546;13.230;2023-12-20T13:06:38;7.07;;;2.55;;
51034;SDS011;37062;52.546;13.230;2023-12-20T13:09:07;5.75;;;2.20;;
51034;SDS011;37062;52.546;13.230;2023-12-20T13:11:37;6.70;;;2.10;;
51034;SDS011;37062;52.546;13.230;2023-12-20T13:14:05;6.78;;;2.08;;
51034;SDS011;37062;52.546;13.230;2023-12-20T13:16:37;5.65;;;1.50;;
51034;SDS011;37062;52.546;13.230;2023-12-20T13:19:06;5.22;;;1.10;;
51034;SDS011;37062;52.546;13.230;2023-12-20T13:21:35;3.38;;;0.98;;
51034;SDS011;37062;52.546;13.230;2023-12-20T13:24:03;2.83;;;1.10;;
51034;SDS011;37062;52.546;13.230;2023-12-20T13:26:32;1.98;;;0.93;;
51034;SDS011;37062;52.546;13.230;2023-12-20T13:29:00;4.63;;;1.40;;
51034;SDS011;37062;52.546;13.230;2023-12-20T13:31:28;3.03;;;1.10;;
51034;SDS011;37062;52.546;13.230;2023-12-20T13:33:57;1.38;;;0.70;;
51034;SDS011;37062;52.546;13.230;2023-12-20T13:36:28;2.42;;;0.90;;
51034;SDS011;37062;52.546;13.230;2023-12-20T13:38:57;1.77;;;1.00;;
51034;SDS011;37062;52.546;13.230;2023-12-20T13:41:25;2.75;;;1.10;;
51034;SDS011;37062;52.546;13.230;2023-12-20T13:43:53;2.50;;;1.23;;
51034;SDS011;37062;52.546;13.230;2023-12-20T13:46:21;2.20;;;1.20;;
51034;SDS011;37062;52.546;13.230;2023-12-20T13:48:50;5.00;;;1.45;;
51034;SDS011;37062;52.546;13.230;2023-12-20T13:51:18;3.97;;;1.20;;
51034;SDS011;37062;52.546;13.230;2023-12-20T13:53:48;3.15;;;1.25;;
51034;SDS011;37062;52.546;13.230;2023-12-20T13:56:16;1.90;;;0.90;;
51034;SDS011;37062;52.546;13.230;2023-12-20T13:58:46;1.50;;;0.80;;
51034;SDS011;37062;52.546;13.230;2023-12-20T14:01:15;3.63;;;1.00;;
51034;SDS011;37062;52.546;13.230;2023-12-20T14:03:43;2.70;;;0.93;;
51034;SDS011;37062;52.546;13.230;2023-12-20T14:06:11;2.92;;;0.80;;
51034;SDS011;37062;52.546;13.230;2023-12-20T14:08:41;1.60;;;0.90;;
51034;SDS011;37062;52.546;13.230;2023-12-20T14:11:11;2.10;;;0.80;;
51034;SDS011;37062;52.546;13.230;2023-12-20T14:13:42;1.35;;;0.70;;
51034;SDS011;37062;52.546;13.230;2023-12-20T14:16:11;1.45;;;0.80;;
51034;SDS011;37062;52.546;13.230;2023-12-20T14:18:39;1.80;;;0.70;;
51034;SDS011;37062;52.546;13.230;2023-12-20T14:21:07;1.40;;;0.68;;
51034;SDS011;37062;52.546;13.230;2023-12-20T14:23:36;1.92;;;0.68;;
51034;SDS011;37062;52.546;13.230;2023-12-20T14:26:04;1.60;;;0.73;;
51034;SDS011;37062;52.546;13.230;2023-12-20T14:28:34;3.20;;;1.20;;
51034;SDS011;37062;52.546;13.230;2023-12-20T14:31:02;1.33;;;0.60;;
51034;SDS011;37062;52.546;13.230;2023-12-20T14:33:32;2.92;;;0.80;;
51034;SDS011;37062;52.546;13.230;2023-12-20T14:36:00;1.83;;;0.80;;
51034;SDS011;37062;52.546;13.230;2023-12-20T14:38:31;1.20;;;0.80;;
51034;SDS011;37062;52.546;13.230;2023-12-20T14:41:00;1.35;;;0.70;;
51034;SDS011;37062;52.546;13.230;2023-12-20T14:43:29;1.75;;;0.80;;
51034;SDS011;37062;52.546;13.230;2023-12-20T14:45:59;2.70;;;0.95;;